Aérodrome :
LOGIN :

S'inscrire | Disclaimer

   EN    FR    IT 

 










Légende :    VFR   VFR Marginal   IFR   IFR Intensif   IFR Très Intensif
Visi : 
Plafond : 
>= 8 km
>= 3000ft
5 à 8 km
1000 à 3000 ft
1500m à 5 km
500 à 1000 ft
800 à 1500m
200 à 500 ft
< 800m
< 200 ft
Symboles :   Orages  Brouillard  Fortes neiges  Fortes précipitations  Vent > 20 kt
SIGMETs :   Divers  Orages  Givrage  Turbulence  Onde Orograph.  Cendres Volcan.







- Altitude de l'aérodrome : 645 ft
- Code IATA : DLE
- Voir les cartes d'approche


LFGJ - Dole Tavaux

DERNIER METAR :
  • 181530Z AUTO 22006KT 150V290 CAVOK 29/13 Q1016 TEMPO FEW065CB

METARs EXPIRÉS :
  • 181500Z AUTO 22007KT 170V250 CAVOK 30/13 Q1016 NOSIG
  • 181430Z AUTO 18004KT 140V280 CAVOK 29/13 Q1016 NOSIG
  • 181400Z AUTO 23006KT 170V320 CAVOK 29/14 Q1016 TEMPO FEW060CB
  • 181330Z AUTO 24009KT 180V290 CAVOK 28/14 Q1016 TEMPO FEW060CB
  • 181300Z AUTO VRB05KT CAVOK 28/15 Q1017 TEMPO FEW060CB

TAF TAF LFGJ
Valide du 18 à 15h jusqu'au 19 à 00h UTC


181400Z 1815/1824 21008KT CAVOK
PROB40
TEMPO 1817/1821 FEW065CB
PROB40
TEMPO 1818/1821 33015G30KT
Pas de NOTAMs connus pour ce terrain.
1 SIGMET publié pour la FIR Reims (LFEE) :
 
Orages noyés dans la masse
LFEE SIGMET 1 VALID 181450/181700 LFPW
LFEE REIMS FIR/UIR EMBD TS OBS WI N4700 E00430 - N4730 E00415 - N4830 E00545 - N4845 E00630 - N4700 E00430 TOP FL380 MOV NE 10KT NC=



MET'MAP, la Météo Aéronautique d'un coup d'oeil ! - Copyright ORBIFLY Décembre 2007 - Disclaimer

ORBIFLY MET'MAP TEAM :

Programmation & Développement : Alexandra Zaïnal
Conception & Développement : Baudouin d'Aumeries
Co-Programmation & Développement : Marc-Olivier Méhu
Soutien technique & logistique : Manuel Goepfert

Contact : metmap@orbifly.com




SOURCES & CREDITS :

   NOAA